Terminal Aerodrome Forecast
Issued by NWS

Home | Current Version | Previous Version | Text Only | Print | Product List | Glossary On
Versions: 1 2 3 4 5 6 7 8 9 10 11 12 13 14 15 16 17 18 19 20 21 22 23
000
FTUS43 KFGF 050709 AAA
TAFDVL
TAF AMD
KDVL 050709Z 0507/0606 03008KT 5SM BR OVC002
      TEMPO 0508/0512 1SM BR
     FM051500 05012KT P6SM OVC015
     FM052100 07011KT P6SM OVC040
      AMD LTD TO CLD VIS AND WIND=

USA.gov is the U.S. government's official web portal to all federal, state and local government web resources and services.